sensor_id;sensor_type;location;lat;lon;timestamp;pressure;altitude;pressure_sealevel;temperature;humidity
10464;BME280;5279;42.048;24.638;2023-04-28T00:00:20;97672.63;;;9.94;54.19
10464;BME280;5279;42.048;24.638;2023-04-28T00:02:47;97670.09;;;9.92;56.49
10464;BME280;5279;42.048;24.638;2023-04-28T00:05:15;97666.06;;;9.78;58.61
10464;BME280;5279;42.048;24.638;2023-04-28T00:07:42;97664.78;;;9.82;55.60
10464;BME280;5279;42.048;24.638;2023-04-28T00:10:09;97655.22;;;9.81;57.31
10464;BME280;5279;42.048;24.638;2023-04-28T00:12:37;97661.88;;;9.76;58.07
10464;BME280;5279;42.048;24.638;2023-04-28T00:15:06;97662.59;;;9.78;57.78
10464;BME280;5279;42.048;24.638;2023-04-28T00:17:33;97655.31;;;9.70;57.04
10464;BME280;5279;42.048;24.638;2023-04-28T00:20:00;97656.03;;;9.63;55.31
10464;BME280;5279;42.048;24.638;2023-04-28T00:22:27;97659.06;;;9.58;58.37
10464;BME280;5279;42.048;24.638;2023-04-28T00:24:55;97666.59;;;9.53;59.08
10464;BME280;5279;42.048;24.638;2023-04-28T00:27:22;97656.00;;;9.53;60.41
10464;BME280;5279;42.048;24.638;2023-04-28T00:29:49;97659.03;;;9.49;60.76
10464;BME280;5279;42.048;24.638;2023-04-28T00:32:18;97670.72;;;9.37;65.15
10464;BME280;5279;42.048;24.638;2023-04-28T00:34:46;97672.91;;;9.22;63.99
10464;BME280;5279;42.048;24.638;2023-04-28T00:37:13;97660.22;;;9.16;61.61
10464;BME280;5279;42.048;24.638;2023-04-28T00:39:40;97663.84;;;9.15;60.75
10464;BME280;5279;42.048;24.638;2023-04-28T00:42:11;97662.59;;;9.19;59.41
10464;BME280;5279;42.048;24.638;2023-04-28T00:44:38;97667.88;;;9.19;60.57
10464;BME280;5279;42.048;24.638;2023-04-28T00:47:07;97663.09;;;9.03;63.33
10464;BME280;5279;42.048;24.638;2023-04-28T00:49:36;97666.75;;;8.82;60.45
10464;BME280;5279;42.048;24.638;2023-04-28T00:52:05;97668.88;;;8.88;63.35
10464;BME280;5279;42.048;24.638;2023-04-28T00:54:32;97666.31;;;8.76;64.34
10464;BME280;5279;42.048;24.638;2023-04-28T00:57:00;97670.44;;;8.69;65.97
10464;BME280;5279;42.048;24.638;2023-04-28T00:59:28;97666.66;;;8.62;64.81
10464;BME280;5279;42.048;24.638;2023-04-28T01:01:55;97669.06;;;8.65;63.78
10464;BME280;5279;42.048;24.638;2023-04-28T01:04:22;97667.69;;;8.71;62.59
10464;BME280;5279;42.048;24.638;2023-04-28T01:06:51;97673.97;;;8.79;61.74
10464;BME280;5279;42.048;24.638;2023-04-28T01:09:19;97669.38;;;8.82;61.50
10464;BME280;5279;42.048;24.638;2023-04-28T01:11:46;97674.13;;;8.78;61.23
10464;BME280;5279;42.048;24.638;2023-04-28T01:14:13;97679.97;;;8.82;61.52
10464;BME280;5279;42.048;24.638;2023-04-28T01:16:40;97679.16;;;8.81;59.86
10464;BME280;5279;42.048;24.638;2023-04-28T01:19:09;97678.31;;;8.81;61.25
10464;BME280;5279;42.048;24.638;2023-04-28T01:21:39;97679.34;;;8.68;59.83
10464;BME280;5279;42.048;24.638;2023-04-28T01:24:07;97681.28;;;8.66;59.36
10464;BME280;5279;42.048;24.638;2023-04-28T01:26:34;97679.34;;;8.68;59.38
10464;BME280;5279;42.048;24.638;2023-04-28T01:29:01;97672.97;;;8.71;58.18
10464;BME280;5279;42.048;24.638;2023-04-28T01:31:29;97675.72;;;8.69;58.14
10464;BME280;5279;42.048;24.638;2023-04-28T01:33:56;97674.94;;;8.78;60.35
10464;BME280;5279;42.048;24.638;2023-04-28T01:36:24;97674.34;;;8.65;60.24
10464;BME280;5279;42.048;24.638;2023-04-28T01:38:52;97677.25;;;8.62;57.94
10464;BME280;5279;42.048;24.638;2023-04-28T01:41:21;97674.84;;;8.59;59.29
10464;BME280;5279;42.048;24.638;2023-04-28T01:43:48;97674.53;;;8.53;60.08
10464;BME280;5279;42.048;24.638;2023-04-28T01:46:15;97672.78;;;8.42;57.83
10464;BME280;5279;42.048;24.638;2023-04-28T01:48:42;97676.16;;;8.44;58.47
10464;BME280;5279;42.048;24.638;2023-04-28T01:51:09;97680.97;;;8.39;59.40
10464;BME280;5279;42.048;24.638;2023-04-28T01:53:36;97677.63;;;8.37;57.43
10464;BME280;5279;42.048;24.638;2023-04-28T01:56:04;97669.13;;;8.34;58.28
10464;BME280;5279;42.048;24.638;2023-04-28T01:58:32;97677.03;;;8.34;57.93
10464;BME280;5279;42.048;24.638;2023-04-28T02:00:59;97673.31;;;8.36;59.48
10464;BME280;5279;42.048;24.638;2023-04-28T02:03:29;97674.56;;;8.32;58.63
10464;BME280;5279;42.048;24.638;2023-04-28T02:05:56;97679.59;;;8.24;57.18
10464;BME280;5279;42.048;24.638;2023-04-28T02:08:23;97681.53;;;8.22;57.44
10464;BME280;5279;42.048;24.638;2023-04-28T02:10:50;97677.78;;;8.24;59.77
10464;BME280;5279;42.048;24.638;2023-04-28T02:13:17;97688.16;;;8.16;56.90
10464;BME280;5279;42.048;24.638;2023-04-28T02:15:45;97680.56;;;8.23;57.48
10464;BME280;5279;42.048;24.638;2023-04-28T02:18:12;97686.34;;;8.17;56.43
10464;BME280;5279;42.048;24.638;2023-04-28T02:20:40;97689.19;;;8.25;55.34
10464;BME280;5279;42.048;24.638;2023-04-28T02:23:07;97690.41;;;8.21;56.27
10464;BME280;5279;42.048;24.638;2023-04-28T02:25:34;97700.44;;;8.27;55.71
10464;BME280;5279;42.048;24.638;2023-04-28T02:28:01;97695.41;;;8.24;55.05
10464;BME280;5279;42.048;24.638;2023-04-28T02:30:28;97702.38;;;8.25;55.97
10464;BME280;5279;42.048;24.638;2023-04-28T02:32:56;97705.44;;;8.20;55.81
10464;BME280;5279;42.048;24.638;2023-04-28T02:35:23;97704.59;;;8.20;55.54
10464;BME280;5279;42.048;24.638;2023-04-28T02:37:50;97702.63;;;8.22;56.18
10464;BME280;5279;42.048;24.638;2023-04-28T02:40:18;97709.34;;;8.26;53.59
10464;BME280;5279;42.048;24.638;2023-04-28T02:42:45;97712.94;;;8.25;54.24
10464;BME280;5279;42.048;24.638;2023-04-28T02:45:12;97710.53;;;8.33;53.78
10464;BME280;5279;42.048;24.638;2023-04-28T02:47:39;97715.09;;;8.31;53.02
10464;BME280;5279;42.048;24.638;2023-04-28T02:50:09;97722.16;;;8.42;54.03
10464;BME280;5279;42.048;24.638;2023-04-28T02:52:36;97722.00;;;8.43;53.63
10464;BME280;5279;42.048;24.638;2023-04-28T02:55:03;97728.97;;;8.44;53.87
10464;BME280;5279;42.048;24.638;2023-04-28T02:57:30;97730.88;;;8.42;53.77
10464;BME280;5279;42.048;24.638;2023-04-28T02:59:58;97726.09;;;8.36;52.95
10464;BME280;5279;42.048;24.638;2023-04-28T03:02:25;97739.53;;;8.44;52.35
10464;BME280;5279;42.048;24.638;2023-04-28T03:04:52;97747.81;;;8.40;53.23
10464;BME280;5279;42.048;24.638;2023-04-28T03:07:20;97755.63;;;8.41;54.40
10464;BME280;5279;42.048;24.638;2023-04-28T03:09:47;97751.44;;;8.39;53.35
10464;BME280;5279;42.048;24.638;2023-04-28T03:12:14;97748.94;;;8.26;53.52
10464;BME280;5279;42.048;24.638;2023-04-28T03:14:41;97748.94;;;8.26;53.33
10464;BME280;5279;42.048;24.638;2023-04-28T03:17:08;97748.84;;;8.28;53.30
10464;BME280;5279;42.048;24.638;2023-04-28T03:19:35;97751.38;;;8.29;53.89
10464;BME280;5279;42.048;24.638;2023-04-28T03:22:02;97747.31;;;8.14;53.78
10464;BME280;5279;42.048;24.638;2023-04-28T03:24:30;97749.72;;;8.06;55.20
10464;BME280;5279;42.048;24.638;2023-04-28T03:26:57;97744.38;;;7.96;57.21
10464;BME280;5279;42.048;24.638;2023-04-28T03:29:24;97763.09;;;7.82;58.76
10464;BME280;5279;42.048;24.638;2023-04-28T03:31:51;97769.97;;;7.74;57.14
10464;BME280;5279;42.048;24.638;2023-04-28T03:34:18;97760.50;;;7.71;55.97
10464;BME280;5279;42.048;24.638;2023-04-28T03:36:45;97763.63;;;7.65;59.60
10464;BME280;5279;42.048;24.638;2023-04-28T03:39:12;97760.16;;;7.64;56.42
10464;BME280;5279;42.048;24.638;2023-04-28T03:41:40;97761.81;;;7.77;54.70
10464;BME280;5279;42.048;24.638;2023-04-28T03:44:07;97772.31;;;7.88;54.79
10464;BME280;5279;42.048;24.638;2023-04-28T03:46:34;97765.41;;;7.87;54.94
10464;BME280;5279;42.048;24.638;2023-04-28T03:49:01;97761.53;;;7.91;55.18
10464;BME280;5279;42.048;24.638;2023-04-28T03:51:28;97760.31;;;7.95;55.12
10464;BME280;5279;42.048;24.638;2023-04-28T03:53:57;97762.47;;;8.01;54.93
10464;BME280;5279;42.048;24.638;2023-04-28T03:56:24;97771.47;;;7.98;55.24
10464;BME280;5279;42.048;24.638;2023-04-28T03:58:52;97766.28;;;8.08;55.63
10464;BME280;5279;42.048;24.638;2023-04-28T04:01:19;97788.19;;;8.19;55.09
10464;BME280;5279;42.048;24.638;2023-04-28T04:03:46;97755.44;;;8.22;54.10
10464;BME280;5279;42.048;24.638;2023-04-28T04:06:15;97775.22;;;8.39;53.60
10464;BME280;5279;42.048;24.638;2023-04-28T04:08:42;97775.66;;;8.44;53.75
10464;BME280;5279;42.048;24.638;2023-04-28T04:11:09;97777.13;;;8.57;53.79
10464;BME280;5279;42.048;24.638;2023-04-28T04:13:36;97766.06;;;8.63;52.61
10464;BME280;5279;42.048;24.638;2023-04-28T04:16:05;97778.50;;;8.72;53.04
10464;BME280;5279;42.048;24.638;2023-04-28T04:18:33;97785.38;;;8.85;52.43
10464;BME280;5279;42.048;24.638;2023-04-28T04:21:00;97781.59;;;8.98;50.99
10464;BME280;5279;42.048;24.638;2023-04-28T04:23:27;97792.22;;;9.08;51.39
10464;BME280;5279;42.048;24.638;2023-04-28T04:25:54;97805.34;;;9.19;51.27
10464;BME280;5279;42.048;24.638;2023-04-28T04:28:22;97810.47;;;9.41;50.46
10464;BME280;5279;42.048;24.638;2023-04-28T04:30:49;97808.00;;;9.49;48.40
10464;BME280;5279;42.048;24.638;2023-04-28T04:33:17;97807.50;;;9.65;49.11
10464;BME280;5279;42.048;24.638;2023-04-28T04:35:44;97803.09;;;9.75;49.97
10464;BME280;5279;42.048;24.638;2023-04-28T04:38:12;97821.94;;;9.81;49.38
10464;BME280;5279;42.048;24.638;2023-04-28T04:40:39;97810.34;;;9.82;47.88
10464;BME280;5279;42.048;24.638;2023-04-28T04:43:05;97813.72;;;9.84;48.43
10464;BME280;5279;42.048;24.638;2023-04-28T04:45:33;97811.34;;;9.91;46.58
10464;BME280;5279;42.048;24.638;2023-04-28T04:48:00;97819.03;;;10.04;48.68
10464;BME280;5279;42.048;24.638;2023-04-28T04:50:29;97821.34;;;10.18;49.06
10464;BME280;5279;42.048;24.638;2023-04-28T04:52:55;97817.06;;;10.36;47.60
10464;BME280;5279;42.048;24.638;2023-04-28T04:55:23;97824.00;;;10.37;45.12
10464;BME280;5279;42.048;24.638;2023-04-28T04:57:50;97825.00;;;10.55;46.40
10464;BME280;5279;42.048;24.638;2023-04-28T05:00:18;97824.44;;;10.61;47.33
10464;BME280;5279;42.048;24.638;2023-04-28T05:02:45;97834.22;;;10.80;46.25
10464;BME280;5279;42.048;24.638;2023-04-28T05:05:12;97840.22;;;10.82;45.71
10464;BME280;5279;42.048;24.638;2023-04-28T05:07:41;97836.19;;;10.87;45.25
10464;BME280;5279;42.048;24.638;2023-04-28T05:10:09;97843.97;;;10.89;45.81
10464;BME280;5279;42.048;24.638;2023-04-28T05:12:37;97842.28;;;10.97;44.70
10464;BME280;5279;42.048;24.638;2023-04-28T05:15:04;97844.81;;;10.89;43.73
10464;BME280;5279;42.048;24.638;2023-04-28T05:17:32;97852.06;;;10.97;44.38
10464;BME280;5279;42.048;24.638;2023-04-28T05:19:59;97850.81;;;10.91;43.17
10464;BME280;5279;42.048;24.638;2023-04-28T05:22:26;97854.16;;;10.93;43.38
10464;BME280;5279;42.048;24.638;2023-04-28T05:24:56;97849.28;;;10.98;43.29
10464;BME280;5279;42.048;24.638;2023-04-28T05:27:23;97850.09;;;11.09;43.75
10464;BME280;5279;42.048;24.638;2023-04-28T05:29:50;97855.81;;;11.14;42.39
10464;BME280;5279;42.048;24.638;2023-04-28T05:32:17;97851.47;;;11.13;42.97
10464;BME280;5279;42.048;24.638;2023-04-28T05:34:44;97854.84;;;11.15;43.38
10464;BME280;5279;42.048;24.638;2023-04-28T05:37:11;97869.34;;;11.20;42.73
10464;BME280;5279;42.048;24.638;2023-04-28T05:39:38;97861.81;;;11.16;42.65
10464;BME280;5279;42.048;24.638;2023-04-28T05:42:06;97850.94;;;11.09;41.92
10464;BME280;5279;42.048;24.638;2023-04-28T05:44:33;97860.56;;;11.20;42.73
10464;BME280;5279;42.048;24.638;2023-04-28T05:47:00;97870.69;;;11.34;42.94
10464;BME280;5279;42.048;24.638;2023-04-28T05:49:27;97862.50;;;11.27;42.19
10464;BME280;5279;42.048;24.638;2023-04-28T05:51:54;97865.94;;;11.47;41.75
10464;BME280;5279;42.048;24.638;2023-04-28T05:54:21;97874.41;;;11.79;42.60
10464;BME280;5279;42.048;24.638;2023-04-28T05:56:48;97872.78;;;11.96;42.86
10464;BME280;5279;42.048;24.638;2023-04-28T05:59:17;97871.28;;;12.21;41.96
10464;BME280;5279;42.048;24.638;2023-04-28T06:01:44;97871.88;;;12.15;40.67
10464;BME280;5279;42.048;24.638;2023-04-28T06:04:10;97875.09;;;12.36;41.33
10464;BME280;5279;42.048;24.638;2023-04-28T06:06:37;97869.66;;;12.55;40.98
10464;BME280;5279;42.048;24.638;2023-04-28T06:09:04;97883.09;;;12.71;41.62
10464;BME280;5279;42.048;24.638;2023-04-28T06:11:31;97879.25;;;12.83;39.34
10464;BME280;5279;42.048;24.638;2023-04-28T06:13:58;97866.19;;;12.72;39.46
10464;BME280;5279;42.048;24.638;2023-04-28T06:16:27;97878.34;;;12.75;40.16
10464;BME280;5279;42.048;24.638;2023-04-28T06:18:54;97878.13;;;13.03;41.22
10464;BME280;5279;42.048;24.638;2023-04-28T06:21:21;97876.53;;;13.10;39.49
10464;BME280;5279;42.048;24.638;2023-04-28T06:23:49;97879.28;;;13.19;40.42
10464;BME280;5279;42.048;24.638;2023-04-28T06:26:16;97885.78;;;13.06;39.97
10464;BME280;5279;42.048;24.638;2023-04-28T06:28:43;97875.59;;;12.84;40.05
10464;BME280;5279;42.048;24.638;2023-04-28T06:31:10;97880.97;;;12.92;39.72
10464;BME280;5279;42.048;24.638;2023-04-28T06:33:38;97885.22;;;13.12;39.39
10464;BME280;5279;42.048;24.638;2023-04-28T06:36:05;97865.94;;;12.83;39.22
10464;BME280;5279;42.048;24.638;2023-04-28T06:38:32;97878.81;;;12.70;40.08
10464;BME280;5279;42.048;24.638;2023-04-28T06:40:59;97877.59;;;12.82;40.51
10464;BME280;5279;42.048;24.638;2023-04-28T06:43:27;97876.44;;;12.85;38.68
10464;BME280;5279;42.048;24.638;2023-04-28T06:45:53;97875.75;;;13.00;40.47
10464;BME280;5279;42.048;24.638;2023-04-28T06:48:20;97878.03;;;13.31;41.17
10464;BME280;5279;42.048;24.638;2023-04-28T06:50:49;97875.72;;;13.36;38.58
10464;BME280;5279;42.048;24.638;2023-04-28T06:53:15;97881.69;;;13.30;39.42
10464;BME280;5279;42.048;24.638;2023-04-28T06:55:42;97874.88;;;13.09;39.25
10464;BME280;5279;42.048;24.638;2023-04-28T06:58:09;97876.22;;;13.13;40.48
10464;BME280;5279;42.048;24.638;2023-04-28T07:00:36;97875.28;;;13.23;38.96
10464;BME280;5279;42.048;24.638;2023-04-28T07:03:03;97865.75;;;13.38;40.43
10464;BME280;5279;42.048;24.638;2023-04-28T07:05:31;97870.22;;;13.55;40.00
10464;BME280;5279;42.048;24.638;2023-04-28T07:07:59;97865.38;;;13.84;39.87
10464;BME280;5279;42.048;24.638;2023-04-28T07:10:26;97873.56;;;13.83;39.40
10464;BME280;5279;42.048;24.638;2023-04-28T07:12:53;97869.75;;;13.85;39.25
10464;BME280;5279;42.048;24.638;2023-04-28T07:15:20;97872.19;;;14.12;39.22
10464;BME280;5279;42.048;24.638;2023-04-28T07:17:48;97876.81;;;14.36;37.52
10464;BME280;5279;42.048;24.638;2023-04-28T07:20:15;97873.91;;;14.21;37.45
10464;BME280;5279;42.048;24.638;2023-04-28T07:22:42;97872.53;;;14.17;39.00
10464;BME280;5279;42.048;24.638;2023-04-28T07:25:10;97871.81;;;14.07;37.96
10464;BME280;5279;42.048;24.638;2023-04-28T07:27:37;97880.09;;;13.96;37.60
10464;BME280;5279;42.048;24.638;2023-04-28T07:30:05;97871.47;;;14.02;37.22
10464;BME280;5279;42.048;24.638;2023-04-28T07:32:33;97875.59;;;14.22;39.07
10464;BME280;5279;42.048;24.638;2023-04-28T07:34:59;97876.91;;;14.27;37.68
10464;BME280;5279;42.048;24.638;2023-04-28T07:37:27;97876.56;;;14.71;37.46
10464;BME280;5279;42.048;24.638;2023-04-28T07:39:55;97870.44;;;14.79;36.77
10464;BME280;5279;42.048;24.638;2023-04-28T07:42:23;97867.75;;;14.79;37.24
10464;BME280;5279;42.048;24.638;2023-04-28T07:44:50;97861.13;;;15.07;37.19
10464;BME280;5279;42.048;24.638;2023-04-28T07:47:17;97862.78;;;15.32;37.62
10464;BME280;5279;42.048;24.638;2023-04-28T07:49:44;97864.78;;;15.39;36.29
10464;BME280;5279;42.048;24.638;2023-04-28T07:52:10;97843.75;;;15.44;37.12
10464;BME280;5279;42.048;24.638;2023-04-28T07:54:37;97849.44;;;15.65;40.82
10464;BME280;5279;42.048;24.638;2023-04-28T07:57:04;97853.97;;;16.03;37.65
10464;BME280;5279;42.048;24.638;2023-04-28T07:59:33;97849.63;;;16.10;35.86
10464;BME280;5279;42.048;24.638;2023-04-28T08:02:00;97840.72;;;16.18;35.34
10464;BME280;5279;42.048;24.638;2023-04-28T08:04:27;97842.25;;;16.12;36.81
10464;BME280;5279;42.048;24.638;2023-04-28T08:06:55;97839.38;;;16.53;36.72
10464;BME280;5279;42.048;24.638;2023-04-28T08:09:22;97838.50;;;16.29;35.55
10464;BME280;5279;42.048;24.638;2023-04-28T08:11:50;97851.97;;;16.44;35.49
10464;BME280;5279;42.048;24.638;2023-04-28T08:14:17;97844.19;;;16.26;36.17
10464;BME280;5279;42.048;24.638;2023-04-28T08:16:45;97849.19;;;16.29;34.05
10464;BME280;5279;42.048;24.638;2023-04-28T08:19:13;97843.94;;;16.13;34.08
10464;BME280;5279;42.048;24.638;2023-04-28T08:21:39;97852.22;;;16.26;34.66
10464;BME280;5279;42.048;24.638;2023-04-28T08:24:06;97841.75;;;16.56;35.02
10464;BME280;5279;42.048;24.638;2023-04-28T08:26:35;97839.06;;;16.48;34.12
10464;BME280;5279;42.048;24.638;2023-04-28T08:29:02;97837.72;;;16.82;34.03
10464;BME280;5279;42.048;24.638;2023-04-28T08:31:29;97840.41;;;17.05;34.18
10464;BME280;5279;42.048;24.638;2023-04-28T08:33:57;97833.41;;;17.41;34.52
10464;BME280;5279;42.048;24.638;2023-04-28T08:36:24;97830.44;;;17.51;33.51
10464;BME280;5279;42.048;24.638;2023-04-28T08:38:56;97828.56;;;17.60;36.24
10464;BME280;5279;42.048;24.638;2023-04-28T08:41:24;97826.00;;;17.43;31.93
10464;BME280;5279;42.048;24.638;2023-04-28T08:43:52;97825.31;;;17.64;32.23
10464;BME280;5279;42.048;24.638;2023-04-28T08:46:21;97818.75;;;17.67;32.29
10464;BME280;5279;42.048;24.638;2023-04-28T08:48:48;97808.84;;;17.53;32.98
10464;BME280;5279;42.048;24.638;2023-04-28T08:51:32;97819.53;;;17.53;33.55
10464;BME280;5279;42.048;24.638;2023-04-28T08:54:02;97815.19;;;17.52;33.31
10464;BME280;5279;42.048;24.638;2023-04-28T08:56:31;97822.28;;;17.67;33.10
10464;BME280;5279;42.048;24.638;2023-04-28T08:59:01;97817.75;;;17.68;34.01
10464;BME280;5279;42.048;24.638;2023-04-28T09:01:29;97805.66;;;17.72;34.29
10464;BME280;5279;42.048;24.638;2023-04-28T09:03:56;97808.22;;;17.94;31.83
10464;BME280;5279;42.048;24.638;2023-04-28T09:06:24;97811.50;;;18.40;31.91
10464;BME280;5279;42.048;24.638;2023-04-28T09:08:51;97810.94;;;18.60;31.75
10464;BME280;5279;42.048;24.638;2023-04-28T09:11:18;97802.13;;;18.87;31.18
10464;BME280;5279;42.048;24.638;2023-04-28T09:13:45;97797.25;;;18.97;33.03
10464;BME280;5279;42.048;24.638;2023-04-28T09:16:12;97794.25;;;19.34;32.07
10464;BME280;5279;42.048;24.638;2023-04-28T09:18:40;97796.84;;;19.00;30.92
10464;BME280;5279;42.048;24.638;2023-04-28T09:21:21;97801.06;;;18.67;31.43
10464;BME280;5279;42.048;24.638;2023-04-28T09:23:49;97802.22;;;18.58;31.97
10464;BME280;5279;42.048;24.638;2023-04-28T09:26:16;97795.72;;;18.67;31.82
10464;BME280;5279;42.048;24.638;2023-04-28T09:28:43;97788.25;;;19.04;29.49
10464;BME280;5279;42.048;24.638;2023-04-28T09:31:24;97785.00;;;19.64;31.50
10464;BME280;5279;42.048;24.638;2023-04-28T09:33:55;97791.56;;;19.55;30.98
10464;BME280;5279;42.048;24.638;2023-04-28T09:36:25;97796.47;;;20.14;30.08
10464;BME280;5279;42.048;24.638;2023-04-28T09:38:56;97781.38;;;20.67;28.07
10464;BME280;5279;42.048;24.638;2023-04-28T09:41:34;97764.84;;;21.03;28.31
10464;BME280;5279;42.048;24.638;2023-04-28T09:44:09;97770.59;;;21.78;27.77
10464;BME280;5279;42.048;24.638;2023-04-28T09:46:36;97763.94;;;22.01;30.61
10464;BME280;5279;42.048;24.638;2023-04-28T09:49:03;97770.59;;;21.78;27.35
10464;BME280;5279;42.048;24.638;2023-04-28T09:51:30;97776.06;;;21.39;27.44
10464;BME280;5279;42.048;24.638;2023-04-28T09:53:59;97780.13;;;20.76;28.00
10464;BME280;5279;42.048;24.638;2023-04-28T09:56:27;97780.03;;;20.43;29.79
10464;BME280;5279;42.048;24.638;2023-04-28T09:58:56;97770.75;;;20.05;29.21
10464;BME280;5279;42.048;24.638;2023-04-28T10:01:24;97764.50;;;19.98;30.05
10464;BME280;5279;42.048;24.638;2023-04-28T10:03:51;97769.59;;;20.21;28.07
10464;BME280;5279;42.048;24.638;2023-04-28T10:06:19;97769.66;;;20.40;26.26
10464;BME280;5279;42.048;24.638;2023-04-28T10:08:47;97759.22;;;20.85;27.94
10464;BME280;5279;42.048;24.638;2023-04-28T10:11:18;97761.50;;;21.01;26.34
10464;BME280;5279;42.048;24.638;2023-04-28T10:13:47;97739.16;;;21.33;27.19
10464;BME280;5279;42.048;24.638;2023-04-28T10:16:15;97740.91;;;21.85;27.13
10464;BME280;5279;42.048;24.638;2023-04-28T10:18:43;97741.53;;;21.94;27.01
10464;BME280;5279;42.048;24.638;2023-04-28T10:21:11;97739.28;;;22.35;25.65
10464;BME280;5279;42.048;24.638;2023-04-28T10:24:00;97739.66;;;21.88;25.62
10464;BME280;5279;42.048;24.638;2023-04-28T10:27:01;97731.56;;;22.01;24.38
10464;BME280;5279;42.048;24.638;2023-04-28T10:29:29;97730.41;;;21.31;26.62
10464;BME280;5279;42.048;24.638;2023-04-28T10:32:29;97724.84;;;21.26;26.50
10464;BME280;5279;42.048;24.638;2023-04-28T10:38:03;97738.66;;;20.57;25.19
10464;BME280;5279;42.048;24.638;2023-04-28T10:40:31;97728.28;;;20.41;26.84
10464;BME280;5279;42.048;24.638;2023-04-28T10:43:00;97721.47;;;20.58;27.22
10464;BME280;5279;42.048;24.638;2023-04-28T10:45:59;97717.47;;;21.79;27.34
10464;BME280;5279;42.048;24.638;2023-04-28T10:51:33;97702.53;;;22.97;24.51
10464;BME280;5279;42.048;24.638;2023-04-28T10:54:13;97700.91;;;23.14;24.18
10464;BME280;5279;42.048;24.638;2023-04-28T10:57:19;97707.44;;;22.81;25.07
10464;BME280;5279;42.048;24.638;2023-04-28T10:59:50;97696.53;;;22.95;25.25
10464;BME280;5279;42.048;24.638;2023-04-28T11:02:47;97692.88;;;22.82;24.65
10464;BME280;5279;42.048;24.638;2023-04-28T11:05:17;97697.56;;;22.94;24.85
10464;BME280;5279;42.048;24.638;2023-04-28T11:11:20;97708.44;;;23.12;23.29
10464;BME280;5279;42.048;24.638;2023-04-28T11:13:48;97697.69;;;23.05;23.35
10464;BME280;5279;42.048;24.638;2023-04-28T11:16:19;97701.94;;;22.95;23.23
10464;BME280;5279;42.048;24.638;2023-04-28T11:18:59;97701.00;;;22.45;23.55
10464;BME280;5279;42.048;24.638;2023-04-28T11:21:29;97706.16;;;22.15;24.01
10464;BME280;5279;42.048;24.638;2023-04-28T11:23:58;97692.91;;;22.07;23.13
10464;BME280;5279;42.048;24.638;2023-04-28T11:26:26;97696.94;;;22.29;24.89
10464;BME280;5279;42.048;24.638;2023-04-28T11:28:54;97687.72;;;22.43;25.36
10464;BME280;5279;42.048;24.638;2023-04-28T11:31:24;97689.25;;;22.70;25.29
10464;BME280;5279;42.048;24.638;2023-04-28T11:34:00;97692.34;;;22.36;25.35
10464;BME280;5279;42.048;24.638;2023-04-28T11:36:31;97694.19;;;22.73;24.29
10464;BME280;5279;42.048;24.638;2023-04-28T11:39:00;97686.53;;;22.95;25.16
10464;BME280;5279;42.048;24.638;2023-04-28T11:41:29;97685.63;;;23.01;25.54
10464;BME280;5279;42.048;24.638;2023-04-28T11:43:56;97678.06;;;23.34;24.65
10464;BME280;5279;42.048;24.638;2023-04-28T11:46:25;97675.19;;;23.54;23.83
10464;BME280;5279;42.048;24.638;2023-04-28T11:49:00;97674.72;;;23.57;23.06
10464;BME280;5279;42.048;24.638;2023-04-28T11:51:32;97680.72;;;23.41;25.56
10464;BME280;5279;42.048;24.638;2023-04-28T11:54:00;97679.50;;;23.37;23.54
10464;BME280;5279;42.048;24.638;2023-04-28T11:56:27;97677.84;;;23.36;21.94
10464;BME280;5279;42.048;24.638;2023-04-28T11:59:02;97669.84;;;23.48;22.09
10464;BME280;5279;42.048;24.638;2023-04-28T12:01:31;97671.19;;;23.57;23.86
10464;BME280;5279;42.048;24.638;2023-04-28T12:03:58;97664.59;;;23.10;22.47
10464;BME280;5279;42.048;24.638;2023-04-28T12:06:25;97664.41;;;23.05;23.86
10464;BME280;5279;42.048;24.638;2023-04-28T12:08:53;97663.38;;;23.06;24.52
10464;BME280;5279;42.048;24.638;2023-04-28T12:11:20;97652.47;;;23.37;24.92
10464;BME280;5279;42.048;24.638;2023-04-28T12:14:03;97641.31;;;23.27;23.65
10464;BME280;5279;42.048;24.638;2023-04-28T12:16:40;97640.81;;;22.94;24.87
10464;BME280;5279;42.048;24.638;2023-04-28T12:19:10;97635.81;;;22.72;23.84
10464;BME280;5279;42.048;24.638;2023-04-28T12:21:38;97624.28;;;22.83;26.02
10464;BME280;5279;42.048;24.638;2023-04-28T12:24:15;97623.34;;;22.71;24.93
10464;BME280;5279;42.048;24.638;2023-04-28T12:26:42;97609.00;;;23.14;24.72
10464;BME280;5279;42.048;24.638;2023-04-28T12:29:37;97629.91;;;23.25;24.93
10464;BME280;5279;42.048;24.638;2023-04-28T12:32:07;97626.38;;;23.24;24.15
10464;BME280;5279;42.048;24.638;2023-04-28T12:34:34;97623.75;;;23.18;24.46
10464;BME280;5279;42.048;24.638;2023-04-28T12:37:02;97612.94;;;23.36;23.71
10464;BME280;5279;42.048;24.638;2023-04-28T12:39:30;97617.13;;;23.32;24.85
10464;BME280;5279;42.048;24.638;2023-04-28T12:41:58;97607.53;;;23.18;24.24
10464;BME280;5279;42.048;24.638;2023-04-28T12:44:26;97611.25;;;22.99;23.75
10464;BME280;5279;42.048;24.638;2023-04-28T12:46:53;97601.81;;;23.26;24.36
10464;BME280;5279;42.048;24.638;2023-04-28T12:49:22;97597.16;;;23.33;23.69
10464;BME280;5279;42.048;24.638;2023-04-28T12:51:49;97592.44;;;23.28;23.40
10464;BME280;5279;42.048;24.638;2023-04-28T12:54:16;97595.44;;;23.38;24.96
10464;BME280;5279;42.048;24.638;2023-04-28T12:56:43;97588.28;;;23.26;24.51
10464;BME280;5279;42.048;24.638;2023-04-28T12:59:10;97589.03;;;22.97;23.79
10464;BME280;5279;42.048;24.638;2023-04-28T13:01:37;97569.41;;;22.83;24.01
10464;BME280;5279;42.048;24.638;2023-04-28T13:04:04;97582.03;;;23.07;25.82
10464;BME280;5279;42.048;24.638;2023-04-28T13:06:32;97577.53;;;23.01;23.60
10464;BME280;5279;42.048;24.638;2023-04-28T13:08:59;97580.84;;;23.03;25.44
10464;BME280;5279;42.048;24.638;2023-04-28T13:11:28;97571.38;;;22.94;25.00
10464;BME280;5279;42.048;24.638;2023-04-28T13:13:55;97568.59;;;22.82;25.32
10464;BME280;5279;42.048;24.638;2023-04-28T13:16:22;97556.72;;;22.83;24.41
10464;BME280;5279;42.048;24.638;2023-04-28T13:18:53;97553.84;;;22.54;24.64
10464;BME280;5279;42.048;24.638;2023-04-28T13:21:21;97560.97;;;22.48;24.99